sensor_id;sensor_type;location;lat;lon;timestamp;pressure;altitude;pressure_sealevel;temperature;humidity
48792;BME280;34587;48.816;9.420;2024-02-21T00:00:47;99843.50;;;5.17;100.00
48792;BME280;34587;48.816;9.420;2024-02-21T00:03:12;99840.31;;;5.27;100.00
48792;BME280;34587;48.816;9.420;2024-02-21T00:05:37;99845.59;;;5.36;100.00
48792;BME280;34587;48.816;9.420;2024-02-21T00:08:03;99838.59;;;5.28;100.00
48792;BME280;34587;48.816;9.420;2024-02-21T00:10:28;99837.19;;;5.44;100.00
48792;BME280;34587;48.816;9.420;2024-02-21T00:12:54;99840.34;;;5.30;100.00
48792;BME280;34587;48.816;9.420;2024-02-21T00:15:19;99835.16;;;5.27;100.00
48792;BME280;34587;48.816;9.420;2024-02-21T00:17:44;99837.09;;;5.37;100.00
48792;BME280;34587;48.816;9.420;2024-02-21T00:20:10;99838.63;;;5.29;100.00
48792;BME280;34587;48.816;9.420;2024-02-21T00:22:36;99833.41;;;5.26;100.00
48792;BME280;34587;48.816;9.420;2024-02-21T00:25:01;99829.94;;;5.23;100.00
48792;BME280;34587;48.816;9.420;2024-02-21T00:27:26;99825.00;;;5.33;100.00
48792;BME280;34587;48.816;9.420;2024-02-21T00:29:52;99819.75;;;5.27;100.00
48792;BME280;34587;48.816;9.420;2024-02-21T00:32:17;99815.59;;;5.34;100.00
48792;BME280;34587;48.816;9.420;2024-02-21T00:34:43;99810.63;;;5.43;100.00
48792;BME280;34587;48.816;9.420;2024-02-21T00:37:08;99807.59;;;5.20;100.00
48792;BME280;34587;48.816;9.420;2024-02-21T00:39:34;99802.47;;;5.20;100.00
48792;BME280;34587;48.816;9.420;2024-02-21T00:41:59;99806.19;;;5.34;100.00
48792;BME280;34587;48.816;9.420;2024-02-21T00:44:24;99807.59;;;5.20;100.00
48792;BME280;34587;48.816;9.420;2024-02-21T00:46:49;99809.09;;;5.09;100.00
48792;BME280;34587;48.816;9.420;2024-02-21T00:49:15;99799.59;;;5.05;100.00
48792;BME280;34587;48.816;9.420;2024-02-21T00:51:41;99797.88;;;5.05;100.00
48792;BME280;34587;48.816;9.420;2024-02-21T00:54:06;99797.03;;;5.05;100.00
48792;BME280;34587;48.816;9.420;2024-02-21T00:56:31;99785.94;;;5.07;100.00
48792;BME280;34587;48.816;9.420;2024-02-21T00:58:56;99790.19;;;5.07;100.00
48792;BME280;34587;48.816;9.420;2024-02-21T05:17:23;99535.13;;;4.14;100.00
48792;BME280;34587;48.816;9.420;2024-02-21T05:19:48;99539.06;;;3.97;100.00
48792;BME280;34587;48.816;9.420;2024-02-21T05:22:13;99546.66;;;3.94;100.00
48792;BME280;34587;48.816;9.420;2024-02-21T05:24:39;99549.13;;;3.88;100.00
48792;BME280;34587;48.816;9.420;2024-02-21T05:27:05;99536.22;;;3.84;100.00
48792;BME280;34587;48.816;9.420;2024-02-21T05:29:30;99532.50;;;3.70;100.00
48792;BME280;34587;48.816;9.420;2024-02-21T05:31:56;99532.50;;;3.70;100.00
48792;BME280;34587;48.816;9.420;2024-02-21T05:34:25;99518.84;;;3.71;100.00
48792;BME280;34587;48.816;9.420;2024-02-21T05:36:51;99502.50;;;3.66;100.00
48792;BME280;34587;48.816;9.420;2024-02-21T05:39:17;99497.47;;;3.71;100.00
48792;BME280;34587;48.816;9.420;2024-02-21T05:41:43;99493.97;;;3.67;100.00
48792;BME280;34587;48.816;9.420;2024-02-21T05:44:08;99500.06;;;3.72;100.00
48792;BME280;34587;48.816;9.420;2024-02-21T05:46:33;99502.97;;;3.88;100.00
48792;BME280;34587;48.816;9.420;2024-02-21T05:48:59;99502.00;;;3.82;100.00
48792;BME280;34587;48.816;9.420;2024-02-21T05:51:24;99500.22;;;3.78;100.00
48792;BME280;34587;48.816;9.420;2024-02-21T05:53:49;99486.63;;;3.82;100.00
48792;BME280;34587;48.816;9.420;2024-02-21T05:56:15;99473.75;;;3.79;100.00
48792;BME280;34587;48.816;9.420;2024-02-21T05:58:40;99482.13;;;3.72;100.00
48792;BME280;34587;48.816;9.420;2024-02-21T06:01:06;99483.13;;;3.77;100.00
48792;BME280;34587;48.816;9.420;2024-02-21T06:03:32;99470.81;;;3.61;100.00
48792;BME280;34587;48.816;9.420;2024-02-21T06:05:58;99475.81;;;3.55;100.00
48792;BME280;34587;48.816;9.420;2024-02-21T06:08:23;99467.41;;;3.62;100.00
48792;BME280;34587;48.816;9.420;2024-02-21T06:10:48;99462.44;;;3.68;100.00
48792;BME280;34587;48.816;9.420;2024-02-21T06:13:14;99461.59;;;3.71;100.00
48792;BME280;34587;48.816;9.420;2024-02-21T06:15:39;99462.03;;;3.50;100.00
48792;BME280;34587;48.816;9.420;2024-02-21T06:18:05;99474.75;;;3.45;100.00
48792;BME280;34587;48.816;9.420;2024-02-21T06:20:30;99478.88;;;3.39;100.00
48792;BME280;34587;48.816;9.420;2024-02-21T06:22:55;99479.63;;;3.34;100.00
48792;BME280;34587;48.816;9.420;2024-02-21T06:25:21;99484.03;;;3.42;100.00
48792;BME280;34587;48.816;9.420;2024-02-21T06:27:46;99474.94;;;3.54;100.00
48792;BME280;34587;48.816;9.420;2024-02-21T06:30:12;99477.06;;;3.74;100.00
48792;BME280;34587;48.816;9.420;2024-02-21T06:32:37;99469.69;;;3.91;100.00
48792;BME280;34587;48.816;9.420;2024-02-21T06:35:03;99475.72;;;3.93;100.00
48792;BME280;34587;48.816;9.420;2024-02-21T06:37:29;99469.38;;;3.75;100.00
48792;BME280;34587;48.816;9.420;2024-02-21T06:39:55;99471.97;;;3.77;100.00
48792;BME280;34587;48.816;9.420;2024-02-21T06:42:20;99480.50;;;3.76;100.00
48792;BME280;34587;48.816;9.420;2024-02-21T06:44:46;99473.84;;;3.84;100.00
48792;BME280;34587;48.816;9.420;2024-02-21T06:47:12;99478.09;;;3.83;100.00
48792;BME280;34587;48.816;9.420;2024-02-21T06:49:37;99484.22;;;3.90;100.00
48792;BME280;34587;48.816;9.420;2024-02-21T06:52:04;99481.91;;;4.04;100.00
48792;BME280;34587;48.816;9.420;2024-02-21T06:54:30;99481.06;;;4.03;100.00
48792;BME280;34587;48.816;9.420;2024-02-21T06:56:55;99471.94;;;4.19;100.00
48792;BME280;34587;48.816;9.420;2024-02-21T06:59:20;99471.38;;;4.34;100.00
48792;BME280;34587;48.816;9.420;2024-02-21T07:01:48;99459.63;;;4.45;100.00
48792;BME280;34587;48.816;9.420;2024-02-21T07:04:13;99462.91;;;4.89;100.00
48792;BME280;34587;48.816;9.420;2024-02-21T07:06:39;99455.28;;;4.94;100.00
48792;BME280;34587;48.816;9.420;2024-02-21T07:09:04;99465.59;;;4.97;100.00
48792;BME280;34587;48.816;9.420;2024-02-21T07:11:29;99466.34;;;4.92;100.00
48792;BME280;34587;48.816;9.420;2024-02-21T07:13:55;99462.72;;;4.77;100.00
48792;BME280;34587;48.816;9.420;2024-02-21T07:16:20;99466.13;;;4.76;100.00
48792;BME280;34587;48.816;9.420;2024-02-21T07:18:45;99454.84;;;4.68;100.00
48792;BME280;34587;48.816;9.420;2024-02-21T07:21:10;99454.66;;;4.56;100.00
48792;BME280;34587;48.816;9.420;2024-02-21T07:23:36;99453.97;;;4.66;100.00
48792;BME280;34587;48.816;9.420;2024-02-21T07:26:01;99447.28;;;4.74;100.00
48792;BME280;34587;48.816;9.420;2024-02-21T07:28:26;99437.91;;;4.78;100.00
48792;BME280;34587;48.816;9.420;2024-02-21T07:30:52;99445.81;;;4.92;100.00
48792;BME280;34587;48.816;9.420;2024-02-21T07:33:17;99458.09;;;5.09;100.00
48792;BME280;34587;48.816;9.420;2024-02-21T07:35:42;99448.72;;;5.13;100.00
48792;BME280;34587;48.816;9.420;2024-02-21T07:38:10;99447.16;;;5.24;100.00
48792;BME280;34587;48.816;9.420;2024-02-21T07:40:37;99451.50;;;5.28;100.00
48792;BME280;34587;48.816;9.420;2024-02-21T07:43:03;99446.44;;;5.34;100.00
48792;BME280;34587;48.816;9.420;2024-02-21T07:45:28;99454.16;;;5.34;100.00
48792;BME280;34587;48.816;9.420;2024-02-21T07:47:53;99441.63;;;5.59;100.00
48792;BME280;34587;48.816;9.420;2024-02-21T07:50:18;99436.03;;;5.90;100.00
48792;BME280;34587;48.816;9.420;2024-02-21T07:52:44;99432.75;;;6.04;100.00
48792;BME280;34587;48.816;9.420;2024-02-21T07:55:09;99416.53;;;6.11;100.00
48792;BME280;34587;48.816;9.420;2024-02-21T07:57:37;99411.59;;;6.29;100.00
48792;BME280;34587;48.816;9.420;2024-02-21T08:00:03;99406.56;;;6.48;100.00
48792;BME280;34587;48.816;9.420;2024-02-21T08:02:34;99391.47;;;6.90;100.00
48792;BME280;34587;48.816;9.420;2024-02-21T08:05:00;99386.44;;;7.12;100.00
48792;BME280;34587;48.816;9.420;2024-02-21T08:07:25;99381.38;;;7.26;100.00
48792;BME280;34587;48.816;9.420;2024-02-21T08:09:50;99382.41;;;7.72;100.00
48792;BME280;34587;48.816;9.420;2024-02-21T08:12:16;99379.94;;;8.15;100.00
48792;BME280;34587;48.816;9.420;2024-02-21T08:14:41;99381.63;;;8.01;100.00
48792;BME280;34587;48.816;9.420;2024-02-21T08:17:06;99378.22;;;8.26;100.00
48792;BME280;34587;48.816;9.420;2024-02-21T08:19:32;99378.19;;;9.15;100.00
48792;BME280;34587;48.816;9.420;2024-02-21T08:21:57;99378.63;;;10.12;100.00
48792;BME280;34587;48.816;9.420;2024-02-21T08:24:22;99364.16;;;11.68;100.00
48792;BME280;34587;48.816;9.420;2024-02-21T08:26:48;99361.75;;;12.19;90.51
48792;BME280;34587;48.816;9.420;2024-02-21T08:29:13;99363.56;;;13.16;74.48
48792;BME280;34587;48.816;9.420;2024-02-21T08:31:38;99345.06;;;15.47;63.94
48792;BME280;34587;48.816;9.420;2024-02-21T08:34:04;99345.91;;;17.12;53.84
48792;BME280;34587;48.816;9.420;2024-02-21T08:36:30;99339.88;;;18.48;46.69
48792;BME280;34587;48.816;9.420;2024-02-21T08:38:56;99343.31;;;18.70;45.16
48792;BME280;34587;48.816;9.420;2024-02-21T08:41:23;99347.59;;;18.51;44.22
48792;BME280;34587;48.816;9.420;2024-02-21T08:43:52;99346.84;;;17.35;47.66
48792;BME280;34587;48.816;9.420;2024-02-21T08:46:21;99354.41;;;15.55;48.93
48792;BME280;34587;48.816;9.420;2024-02-21T08:48:47;99357.13;;;15.51;53.98
48792;BME280;34587;48.816;9.420;2024-02-21T08:51:13;99358.75;;;15.86;51.35
48792;BME280;34587;48.816;9.420;2024-02-21T08:53:38;99352.66;;;14.92;52.09
48792;BME280;34587;48.816;9.420;2024-02-21T08:56:04;99353.00;;;14.80;54.89
48792;BME280;34587;48.816;9.420;2024-02-21T08:58:30;99348.88;;;14.70;55.56
48792;BME280;34587;48.816;9.420;2024-02-21T09:00:55;99341.56;;;14.51;54.30
48792;BME280;34587;48.816;9.420;2024-02-21T09:03:20;99336.72;;;13.57;58.65
48792;BME280;34587;48.816;9.420;2024-02-21T09:05:46;99328.88;;;13.97;58.29
48792;BME280;34587;48.816;9.420;2024-02-21T09:08:12;99330.81;;;13.89;59.19
48792;BME280;34587;48.816;9.420;2024-02-21T09:10:37;99318.69;;;13.88;58.77
48792;BME280;34587;48.816;9.420;2024-02-21T09:13:02;99321.84;;;13.19;58.03
48792;BME280;34587;48.816;9.420;2024-02-21T09:15:29;99311.25;;;13.31;61.79
48792;BME280;34587;48.816;9.420;2024-02-21T09:17:54;99312.06;;;12.88;66.33
48792;BME280;34587;48.816;9.420;2024-02-21T09:20:19;99315.47;;;12.90;67.52
48792;BME280;34587;48.816;9.420;2024-02-21T09:22:45;99312.81;;;12.45;68.89
48792;BME280;34587;48.816;9.420;2024-02-21T09:25:10;99305.75;;;12.53;68.34
48792;BME280;34587;48.816;9.420;2024-02-21T09:27:38;99300.00;;;12.84;64.84
48792;BME280;34587;48.816;9.420;2024-02-21T09:30:03;99301.81;;;12.79;66.11
48792;BME280;34587;48.816;9.420;2024-02-21T09:32:30;99309.25;;;11.97;67.16
48792;BME280;34587;48.816;9.420;2024-02-21T09:34:55;99300.03;;;11.76;70.08
48792;BME280;34587;48.816;9.420;2024-02-21T09:37:21;99300.63;;;11.96;71.33
48792;BME280;34587;48.816;9.420;2024-02-21T09:39:46;99298.78;;;13.00;65.75
48792;BME280;34587;48.816;9.420;2024-02-21T09:42:14;99294.81;;;12.82;62.93
48792;BME280;34587;48.816;9.420;2024-02-21T09:44:42;99285.13;;;13.34;62.00
48792;BME280;34587;48.816;9.420;2024-02-21T09:47:14;99292.41;;;12.24;62.84
48792;BME280;34587;48.816;9.420;2024-02-21T09:49:43;99287.94;;;12.80;63.64
48792;BME280;34587;48.816;9.420;2024-02-21T09:52:10;99282.59;;;12.86;60.15
48792;BME280;34587;48.816;9.420;2024-02-21T09:54:39;99279.09;;;13.74;57.50
48792;BME280;34587;48.816;9.420;2024-02-21T09:57:07;99273.94;;;14.08;54.68
48792;BME280;34587;48.816;9.420;2024-02-21T09:59:33;99272.47;;;14.32;54.02
48792;BME280;34587;48.816;9.420;2024-02-21T10:01:59;99271.88;;;13.85;56.04
48792;BME280;34587;48.816;9.420;2024-02-21T10:04:27;99268.47;;;13.44;58.43
48792;BME280;34587;48.816;9.420;2024-02-21T10:06:54;99272.97;;;13.36;57.79
48792;BME280;34587;48.816;9.420;2024-02-21T10:09:32;99273.19;;;13.66;58.11
48792;BME280;34587;48.816;9.420;2024-02-21T10:12:11;99268.03;;;13.62;58.74
48792;BME280;34587;48.816;9.420;2024-02-21T10:14:37;99269.25;;;13.85;58.55
48792;BME280;34587;48.816;9.420;2024-02-21T10:17:02;99259.50;;;13.56;58.20
48792;BME280;34587;48.816;9.420;2024-02-21T10:19:30;99256.03;;;13.94;59.24
48792;BME280;34587;48.816;9.420;2024-02-21T10:22:02;99244.41;;;14.76;56.23
48792;BME280;34587;48.816;9.420;2024-02-21T10:24:29;99252.25;;;14.07;55.85
48792;BME280;34587;48.816;9.420;2024-02-21T10:27:08;99247.38;;;13.92;55.95
48792;BME280;34587;48.816;9.420;2024-02-21T10:29:37;99245.59;;;13.17;58.93
48792;BME280;34587;48.816;9.420;2024-02-21T10:32:10;99234.88;;;13.32;58.81
48792;BME280;34587;48.816;9.420;2024-02-21T10:34:37;99226.63;;;13.11;56.80
48792;BME280;34587;48.816;9.420;2024-02-21T10:37:07;99221.47;;;13.86;54.77
48792;BME280;34587;48.816;9.420;2024-02-21T10:39:40;99220.59;;;13.87;52.49
48792;BME280;34587;48.816;9.420;2024-02-21T10:42:06;99214.28;;;14.30;54.62
48792;BME280;34587;48.816;9.420;2024-02-21T10:44:35;99219.31;;;14.37;51.88
48792;BME280;34587;48.816;9.420;2024-02-21T10:47:07;99213.50;;;14.28;51.35
48792;BME280;34587;48.816;9.420;2024-02-21T10:49:38;99205.00;;;15.44;49.02
48792;BME280;34587;48.816;9.420;2024-02-21T10:52:51;99200.81;;;16.19;46.38
48792;BME280;34587;48.816;9.420;2024-02-21T10:55:41;99197.81;;;15.51;47.16
48792;BME280;34587;48.816;9.420;2024-02-21T10:58:11;99192.22;;;15.35;49.01
48792;BME280;34587;48.816;9.420;2024-02-21T11:00:37;99190.34;;;14.50;52.62
48792;BME280;34587;48.816;9.420;2024-02-21T11:03:02;99184.00;;;13.56;54.93
48792;BME280;34587;48.816;9.420;2024-02-21T11:05:28;99173.72;;;14.85;49.17
48792;BME280;34587;48.816;9.420;2024-02-21T11:07:55;99171.19;;;16.21;46.05
48792;BME280;34587;48.816;9.420;2024-02-21T11:10:24;99155.34;;;16.97;43.79
48792;BME280;34587;48.816;9.420;2024-02-21T11:13:10;99152.00;;;17.59;41.67
48792;BME280;34587;48.816;9.420;2024-02-21T11:15:36;99143.31;;;17.37;41.86
48792;BME280;34587;48.816;9.420;2024-02-21T11:18:01;99141.22;;;16.78;42.36
48792;BME280;34587;48.816;9.420;2024-02-21T11:20:36;99136.44;;;16.17;43.07
48792;BME280;34587;48.816;9.420;2024-02-21T11:23:02;99121.66;;;16.64;43.36
48792;BME280;34587;48.816;9.420;2024-02-21T11:25:28;99123.75;;;15.80;44.58
48792;BME280;34587;48.816;9.420;2024-02-21T11:28:03;99114.28;;;16.02;44.10
48792;BME280;34587;48.816;9.420;2024-02-21T11:30:32;99117.75;;;15.78;44.08
48792;BME280;34587;48.816;9.420;2024-02-21T11:33:00;99111.44;;;15.02;46.14
48792;BME280;34587;48.816;9.420;2024-02-21T11:35:31;99098.63;;;15.49;44.58
48792;BME280;34587;48.816;9.420;2024-02-21T11:38:07;99095.47;;;14.83;46.34
48792;BME280;34587;48.816;9.420;2024-02-21T11:40:34;99086.72;;;14.56;47.46
48792;BME280;34587;48.816;9.420;2024-02-21T11:42:59;99079.06;;;14.50;47.68
48792;BME280;34587;48.816;9.420;2024-02-21T11:45:25;99084.41;;;14.14;45.39
48792;BME280;34587;48.816;9.420;2024-02-21T11:47:51;99078.22;;;14.50;44.53
48792;BME280;34587;48.816;9.420;2024-02-21T11:50:16;99077.13;;;15.41;44.31
48792;BME280;34587;48.816;9.420;2024-02-21T11:52:42;99065.97;;;15.62;43.84
48792;BME280;34587;48.816;9.420;2024-02-21T11:55:07;99062.78;;;16.06;43.30
48792;BME280;34587;48.816;9.420;2024-02-21T11:57:33;99049.69;;;16.06;43.00
48792;BME280;34587;48.816;9.420;2024-02-21T12:00:11;99048.94;;;16.02;44.19
48792;BME280;34587;48.816;9.420;2024-02-21T12:02:37;99042.38;;;15.90;43.18
48792;BME280;34587;48.816;9.420;2024-02-21T12:05:03;99033.44;;;15.73;43.87
48792;BME280;34587;48.816;9.420;2024-02-21T12:07:30;99040.72;;;15.36;43.60
48792;BME280;34587;48.816;9.420;2024-02-21T12:09:59;99033.25;;;15.26;43.78
48792;BME280;34587;48.816;9.420;2024-02-21T12:12:24;99031.44;;;15.28;44.85
48792;BME280;34587;48.816;9.420;2024-02-21T12:14:56;99029.25;;;14.59;46.03
48792;BME280;34587;48.816;9.420;2024-02-21T12:17:23;99025.31;;;15.02;46.37
48792;BME280;34587;48.816;9.420;2024-02-21T12:19:48;99019.16;;;14.47;47.30
48792;BME280;34587;48.816;9.420;2024-02-21T12:22:20;99007.31;;;14.67;45.99
48792;BME280;34587;48.816;9.420;2024-02-21T12:24:45;99009.41;;;14.55;47.97
48792;BME280;34587;48.816;9.420;2024-02-21T12:27:13;99007.31;;;14.37;47.19
48792;BME280;34587;48.816;9.420;2024-02-21T12:29:38;99003.38;;;13.93;47.83
48792;BME280;34587;48.816;9.420;2024-02-21T12:32:04;98989.59;;;14.19;48.44
48792;BME280;34587;48.816;9.420;2024-02-21T12:34:29;98991.75;;;14.04;49.02
48792;BME280;34587;48.816;9.420;2024-02-21T12:36:58;98981.28;;;14.06;48.18
48792;BME280;34587;48.816;9.420;2024-02-21T12:39:23;98979.78;;;13.97;47.79
48792;BME280;34587;48.816;9.420;2024-02-21T12:41:48;98979.41;;;13.80;48.03
48792;BME280;34587;48.816;9.420;2024-02-21T12:44:13;98969.34;;;13.97;49.03
48792;BME280;34587;48.816;9.420;2024-02-21T12:46:39;98967.56;;;13.70;48.58
48792;BME280;34587;48.816;9.420;2024-02-21T12:49:05;98962.78;;;14.15;46.58
48792;BME280;34587;48.816;9.420;2024-02-21T12:51:33;98945.16;;;14.23;45.59
48792;BME280;34587;48.816;9.420;2024-02-21T12:53:59;98945.00;;;14.57;44.21
48792;BME280;34587;48.816;9.420;2024-02-21T12:56:25;98934.94;;;14.15;44.56
48792;BME280;34587;48.816;9.420;2024-02-21T12:58:52;98927.63;;;14.28;44.83
48792;BME280;34587;48.816;9.420;2024-02-21T13:01:17;98925.66;;;14.07;44.90
48792;BME280;34587;48.816;9.420;2024-02-21T13:03:43;98924.94;;;14.02;43.80
48792;BME280;34587;48.816;9.420;2024-02-21T13:06:10;98919.69;;;14.03;44.81
48792;BME280;34587;48.816;9.420;2024-02-21T13:08:36;98909.53;;;14.24;44.57
48792;BME280;34587;48.816;9.420;2024-02-21T13:11:02;98900.09;;;14.20;44.29
48792;BME280;34587;48.816;9.420;2024-02-21T13:13:27;98895.84;;;14.17;44.37
48792;BME280;34587;48.816;9.420;2024-02-21T13:15:53;98893.88;;;14.24;43.96
48792;BME280;34587;48.816;9.420;2024-02-21T13:18:18;98879.84;;;14.00;43.32
48792;BME280;34587;48.816;9.420;2024-02-21T13:20:43;98882.22;;;14.35;44.24
48792;BME280;34587;48.816;9.420;2024-02-21T13:23:08;98875.22;;;14.37;43.24
48792;BME280;34587;48.816;9.420;2024-02-21T13:25:34;98867.34;;;14.39;42.56
48792;BME280;34587;48.816;9.420;2024-02-21T13:27:59;98862.63;;;14.52;41.39
48792;BME280;34587;48.816;9.420;2024-02-21T13:30:24;98864.03;;;14.34;42.56
48792;BME280;34587;48.816;9.420;2024-02-21T13:32:51;98855.50;;;14.29;42.89
48792;BME280;34587;48.816;9.420;2024-02-21T13:35:16;98850.59;;;14.48;42.23
48792;BME280;34587;48.816;9.420;2024-02-21T13:37:41;98845.88;;;14.31;40.98
48792;BME280;34587;48.816;9.420;2024-02-21T13:40:07;98843.09;;;13.81;40.08
48792;BME280;34587;48.816;9.420;2024-02-21T13:42:36;98836.63;;;13.65;41.59
48792;BME280;34587;48.816;9.420;2024-02-21T13:45:03;98836.59;;;13.66;40.66
48792;BME280;34587;48.816;9.420;2024-02-21T13:47:30;98816.69;;;13.93;40.96
48792;BME280;34587;48.816;9.420;2024-02-21T13:49:55;98809.59;;;14.25;40.45
48792;BME280;34587;48.816;9.420;2024-02-21T13:52:21;98816.56;;;13.96;40.96
48792;BME280;34587;48.816;9.420;2024-02-21T13:54:47;98811.84;;;13.81;40.85
48792;BME280;34587;48.816;9.420;2024-02-21T13:57:13;98805.56;;;13.86;40.93
48792;BME280;34587;48.816;9.420;2024-02-21T13:59:39;98806.81;;;13.75;41.41
48792;BME280;34587;48.816;9.420;2024-02-21T14:02:05;98805.13;;;13.72;40.99
48792;BME280;34587;48.816;9.420;2024-02-21T14:04:32;98802.53;;;13.72;40.96
48792;BME280;34587;48.816;9.420;2024-02-21T14:06:57;98799.31;;;13.92;41.64
48792;BME280;34587;48.816;9.420;2024-02-21T14:09:22;98795.28;;;13.83;42.04
48792;BME280;34587;48.816;9.420;2024-02-21T14:11:48;98790.47;;;13.70;40.25
48792;BME280;34587;48.816;9.420;2024-02-21T14:14:13;98787.31;;;13.58;40.42
48792;BME280;34587;48.816;9.420;2024-02-21T14:16:40;98788.06;;;13.63;40.71
48792;BME280;34587;48.816;9.420;2024-02-21T14:19:05;98787.75;;;13.73;42.15
48792;BME280;34587;48.816;9.420;2024-02-21T14:21:32;98780.84;;;13.72;41.45
48792;BME280;34587;48.816;9.420;2024-02-21T14:23:57;98773.75;;;13.77;41.96
48792;BME280;34587;48.816;9.420;2024-02-21T14:26:23;98770.50;;;13.70;41.26
48792;BME280;34587;48.816;9.420;2024-02-21T14:28:48;98761.00;;;13.69;41.55
48792;BME280;34587;48.816;9.420;2024-02-21T14:31:14;98767.94;;;13.69;43.76
48792;BME280;34587;48.816;9.420;2024-02-21T14:33:39;98765.34;;;13.69;42.67
48792;BME280;34587;48.816;9.420;2024-02-21T14:36:04;98767.53;;;13.54;43.52
48792;BME280;34587;48.816;9.420;2024-02-21T14:38:30;98755.50;;;13.50;44.52
48792;BME280;34587;48.816;9.420;2024-02-21T14:40:55;98751.91;;;13.25;44.11
48792;BME280;34587;48.816;9.420;2024-02-21T14:43:21;98761.50;;;13.23;45.83
48792;BME280;34587;48.816;9.420;2024-02-21T14:45:47;98757.38;;;13.45;45.43
48792;BME280;34587;48.816;9.420;2024-02-21T14:48:13;98743.19;;;13.55;45.34
48792;BME280;34587;48.816;9.420;2024-02-21T14:50:38;98746.84;;;13.50;43.55
48792;BME280;34587;48.816;9.420;2024-02-21T14:53:03;98741.06;;;13.40;44.21
48792;BME280;34587;48.816;9.420;2024-02-21T14:55:29;98738.34;;;13.43;44.62
48792;BME280;34587;48.816;9.420;2024-02-21T14:57:54;98733.91;;;13.47;44.78
48792;BME280;34587;48.816;9.420;2024-02-21T15:00:19;98722.84;;;13.40;44.38
48792;BME280;34587;48.816;9.420;2024-02-21T15:02:46;98726.69;;;13.27;45.17
48792;BME280;34587;48.816;9.420;2024-02-21T15:05:12;98723.28;;;13.25;46.37
48792;BME280;34587;48.816;9.420;2024-02-21T15:07:37;98710.69;;;13.39;46.43
48792;BME280;34587;48.816;9.420;2024-02-21T15:10:03;98715.72;;;13.45;46.75
48792;BME280;34587;48.816;9.420;2024-02-21T15:12:28;98693.09;;;13.47;45.40
48792;BME280;34587;48.816;9.420;2024-02-21T15:14:54;98691.19;;;13.52;45.96
48792;BME280;34587;48.816;9.420;2024-02-21T15:17:19;98689.78;;;13.42;46.47
48792;BME280;34587;48.816;9.420;2024-02-21T15:19:44;98699.41;;;13.40;48.38
48792;BME280;34587;48.816;9.420;2024-02-21T15:22:10;98700.41;;;13.36;47.36
48792;BME280;34587;48.816;9.420;2024-02-21T15:24:39;98688.38;;;13.32;46.93
48792;BME280;34587;48.816;9.420;2024-02-21T15:27:05;98685.22;;;13.21;48.10
48792;BME280;34587;48.816;9.420;2024-02-21T15:29:30;98681.13;;;13.12;49.57
48792;BME280;34587;48.816;9.420;2024-02-21T15:31:56;98685.31;;;13.18;49.34
48792;BME280;34587;48.816;9.420;2024-02-21T15:34:21;98671.66;;;13.09;48.77
48792;BME280;34587;48.816;9.420;2024-02-21T15:36:46;98662.69;;;12.92;49.12
48792;BME280;34587;48.816;9.420;2024-02-21T15:39:12;98662.34;;;13.02;49.55
48792;BME280;34587;48.816;9.420;2024-02-21T15:41:37;98656.31;;;13.00;49.84
48792;BME280;34587;48.816;9.420;2024-02-21T15:44:03;98653.19;;;12.89;50.24
48792;BME280;34587;48.816;9.420;2024-02-21T15:46:29;98648.91;;;12.88;51.75
48792;BME280;34587;48.816;9.420;2024-02-21T15:48:56;98632.47;;;12.86;51.71
48792;BME280;34587;48.816;9.420;2024-02-21T15:51:21;98628.19;;;12.85;51.70
48792;BME280;34587;48.816;9.420;2024-02-21T15:53:47;98623.50;;;12.67;53.62
48792;BME280;34587;48.816;9.420;2024-02-21T15:56:12;98607.13;;;12.65;55.67
48792;BME280;34587;48.816;9.420;2024-02-21T15:58:39;98605.22;;;12.70;55.43
48792;BME280;34587;48.816;9.420;2024-02-21T16:01:04;98600.56;;;12.51;57.91
48792;BME280;34587;48.816;9.420;2024-02-21T16:03:30;98593.47;;;12.56;58.62
48792;BME280;34587;48.816;9.420;2024-02-21T16:05:56;98597.38;;;12.42;59.46
48792;BME280;34587;48.816;9.420;2024-02-21T16:08:22;98589.81;;;12.34;61.36
48792;BME280;34587;48.816;9.420;2024-02-21T16:10:48;98593.59;;;12.22;62.73
48792;BME280;34587;48.816;9.420;2024-02-21T16:13:13;98590.19;;;12.20;62.32
48792;BME280;34587;48.816;9.420;2024-02-21T16:15:39;98591.47;;;12.05;64.61
48792;BME280;34587;48.816;9.420;2024-02-21T16:18:05;98589.78;;;12.04;65.24
48792;BME280;34587;48.816;9.420;2024-02-21T16:20:31;98588.66;;;11.79;68.53
48792;BME280;34587;48.816;9.420;2024-02-21T16:22:56;98588.03;;;11.69;69.47
48792;BME280;34587;48.816;9.420;2024-02-21T16:25:28;98578.06;;;11.88;69.88
48792;BME280;34587;48.816;9.420;2024-02-21T16:27:54;98572.16;;;11.81;70.19
48792;BME280;34587;48.816;9.420;2024-02-21T16:30:19;98571.50;;;11.75;71.92
48792;BME280;34587;48.816;9.420;2024-02-21T16:32:44;98564.97;;;11.58;74.01
48792;BME280;34587;48.816;9.420;2024-02-21T16:35:09;98562.75;;;11.43;76.88
48792;BME280;34587;48.816;9.420;2024-02-21T16:37:35;98560.72;;;11.22;80.81
48792;BME280;34587;48.816;9.420;2024-02-21T16:40:00;98559.13;;;11.15;81.39
48792;BME280;34587;48.816;9.420;2024-02-21T16:42:26;98559.59;;;11.32;77.64
48792;BME280;34587;48.816;9.420;2024-02-21T16:44:51;98556.16;;;11.30;78.17
48792;BME280;34587;48.816;9.420;2024-02-21T16:47:16;98550.63;;;11.10;80.43
48792;BME280;34587;48.816;9.420;2024-02-21T16:49:42;98541.56;;;11.26;79.33
48792;BME280;34587;48.816;9.420;2024-02-21T16:52:07;98540.88;;;11.19;80.65
48792;BME280;34587;48.816;9.420;2024-02-21T16:54:34;98540.19;;;11.13;81.20
48792;BME280;34587;48.816;9.420;2024-02-21T16:56:59;98533.41;;;11.05;81.81
48792;BME280;34587;48.816;9.420;2024-02-21T16:59:25;98527.44;;;11.03;82.75
48792;BME280;34587;48.816;9.420;2024-02-21T17:01:50;98516.44;;;10.94;84.71
48792;BME280;34587;48.816;9.420;2024-02-21T17:04:16;98512.25;;;10.87;87.81
48792;BME280;34587;48.816;9.420;2024-02-21T17:06:42;98515.06;;;10.79;89.69
48792;BME280;34587;48.816;9.420;2024-02-21T17:09:08;98520.34;;;10.73;90.58
48792;BME280;34587;48.816;9.420;2024-02-21T17:11:36;98513.69;;;10.63;91.64